createdAt,value
2022-12-27T00:00:53.475Z,1009.33
2022-12-27T00:01:56.487Z,1009.38
2022-12-27T00:02:59.326Z,1009.41
2022-12-27T00:04:02.127Z,1009.36
2022-12-27T00:05:04.989Z,1009.33
2022-12-27T00:06:07.639Z,1009.41
2022-12-27T00:07:10.346Z,1009.41
2022-12-27T00:08:13.066Z,1009.39
2022-12-27T00:09:15.734Z,1009.46
2022-12-27T00:10:18.462Z,1009.51
2022-12-27T00:11:21.251Z,1009.52
2022-12-27T00:12:23.964Z,1009.56
2022-12-27T00:13:26.629Z,1009.56
2022-12-27T00:14:29.344Z,1009.54
2022-12-27T00:15:32.097Z,1009.47
2022-12-27T00:16:35.090Z,1009.48
2022-12-27T00:17:37.828Z,1009.55
2022-12-27T00:18:40.571Z,1009.57
2022-12-27T00:19:43.308Z,1009.57
2022-12-27T00:20:46.064Z,1009.57
2022-12-27T00:21:48.828Z,1009.5
2022-12-27T00:22:51.491Z,1009.55
2022-12-27T00:23:54.214Z,1009.57
2022-12-27T00:24:56.892Z,1009.56
2022-12-27T00:25:59.539Z,1009.56
2022-12-27T00:27:02.275Z,1009.61
2022-12-27T00:28:06.283Z,1009.59
2022-12-27T00:29:08.886Z,1009.59
2022-12-27T00:30:11.633Z,1009.54
2022-12-27T00:31:14.646Z,1009.6
2022-12-27T00:32:17.382Z,1009.58
2022-12-27T00:33:20.096Z,1009.59
2022-12-27T00:34:22.804Z,1009.55
2022-12-27T00:35:25.490Z,1009.55
2022-12-27T00:36:28.272Z,1009.54
2022-12-27T00:37:31.000Z,1009.53
2022-12-27T00:38:34.286Z,1009.53
2022-12-27T00:39:36.978Z,1009.58
2022-12-27T00:40:39.694Z,1009.57
2022-12-27T00:41:42.433Z,1009.55
2022-12-27T00:42:45.152Z,1009.61
2022-12-27T00:43:47.909Z,1009.63
2022-12-27T00:44:50.643Z,1009.65
2022-12-27T00:45:53.572Z,1009.69
2022-12-27T00:46:56.375Z,1009.71
2022-12-27T00:47:59.151Z,1009.71
2022-12-27T00:49:01.841Z,1009.71
2022-12-27T00:50:05.169Z,1009.76
2022-12-27T00:51:07.803Z,1009.74
2022-12-27T00:52:10.501Z,1009.72
2022-12-27T00:53:13.213Z,1009.74
2022-12-27T00:54:15.934Z,1009.76
2022-12-27T00:55:18.636Z,1009.74
2022-12-27T00:56:21.374Z,1009.81
2022-12-27T00:57:24.089Z,1009.73
2022-12-27T00:58:26.822Z,1009.8
2022-12-27T00:59:29.496Z,1009.79
2022-12-27T01:00:32.205Z,1009.74
2022-12-27T01:01:35.828Z,1009.74
2022-12-27T01:02:38.633Z,1009.77
2022-12-27T01:03:41.663Z,1009.71
2022-12-27T01:04:44.410Z,1009.7
2022-12-27T01:05:47.072Z,1009.68
2022-12-27T01:06:49.887Z,1009.73
2022-12-27T01:07:52.600Z,1009.76
2022-12-27T01:08:55.283Z,1009.8
2022-12-27T01:09:58.011Z,1009.8
2022-12-27T01:11:00.678Z,1009.83
2022-12-27T01:12:03.380Z,1009.84
2022-12-27T01:13:06.128Z,1009.9
2022-12-27T01:14:08.856Z,1009.91
2022-12-27T01:15:11.518Z,1009.84
2022-12-27T01:16:14.712Z,1009.82
2022-12-27T01:17:17.413Z,1009.81
2022-12-27T01:18:20.144Z,1009.81
2022-12-27T01:19:22.880Z,1009.88
2022-12-27T01:20:25.547Z,1009.88
2022-12-27T01:21:28.268Z,1009.88
2022-12-27T01:22:30.982Z,1009.89
2022-12-27T01:23:33.739Z,1009.89
2022-12-27T01:24:36.508Z,1009.94
2022-12-27T01:25:39.234Z,1010
2022-12-27T01:26:41.923Z,1009.98
2022-12-27T01:27:44.621Z,1009.94
2022-12-27T01:28:47.362Z,1009.99
2022-12-27T01:29:50.074Z,1009.99
2022-12-27T01:30:52.790Z,1010.01
2022-12-27T01:31:55.839Z,1009.96
2022-12-27T01:32:58.550Z,1010.04
2022-12-27T01:34:01.278Z,1010
2022-12-27T01:35:04.137Z,1010.02
2022-12-27T01:36:06.846Z,1010.03
2022-12-27T01:37:09.556Z,1009.99
2022-12-27T01:38:12.314Z,1010.03
2022-12-27T01:39:14.988Z,1010.02
2022-12-27T01:40:17.671Z,1010
2022-12-27T01:41:20.418Z,1010.06
2022-12-27T01:42:23.151Z,1010.08
2022-12-27T01:43:25.825Z,1010.14
2022-12-27T01:44:28.478Z,1010.14
2022-12-27T01:45:31.332Z,1010.13
2022-12-27T01:46:34.042Z,1010.19
2022-12-27T01:47:36.753Z,1010.13
2022-12-27T01:48:39.452Z,1010.18
2022-12-27T01:49:42.202Z,1010.15
2022-12-27T01:50:44.948Z,1010.28
2022-12-27T01:51:47.652Z,1010.2
2022-12-27T01:52:50.372Z,1010.26
2022-12-27T01:53:53.105Z,1010.28
2022-12-27T01:54:55.806Z,1010.29
2022-12-27T01:55:58.527Z,1010.28
2022-12-27T01:57:01.207Z,1010.28
2022-12-27T01:58:03.909Z,1010.26
2022-12-27T01:59:06.662Z,1010.3
2022-12-27T02:00:09.381Z,1010.26
2022-12-27T02:01:12.685Z,1010.33
2022-12-27T02:02:16.246Z,1010.28
2022-12-27T02:03:19.060Z,1010.32
2022-12-27T02:04:21.759Z,1010.3
2022-12-27T02:05:24.535Z,1010.33
2022-12-27T02:06:27.257Z,1010.36
2022-12-27T02:07:29.978Z,1010.38
2022-12-27T02:08:32.620Z,1010.43
2022-12-27T02:09:35.414Z,1010.35
2022-12-27T02:10:38.108Z,1010.36
2022-12-27T02:11:40.813Z,1010.38
2022-12-27T02:12:43.490Z,1010.34
2022-12-27T02:13:46.796Z,1010.37
2022-12-27T02:14:49.470Z,1010.39
2022-12-27T02:15:52.190Z,1010.35
2022-12-27T02:16:55.029Z,1010.35
2022-12-27T02:17:57.697Z,1010.42
2022-12-27T02:19:01.770Z,1010.4
2022-12-27T02:20:04.456Z,1010.38
2022-12-27T02:21:07.178Z,1010.4
2022-12-27T02:22:09.890Z,1010.4
2022-12-27T02:23:12.584Z,1010.39
2022-12-27T02:24:15.288Z,1010.41
2022-12-27T02:25:18.359Z,1010.39
2022-12-27T02:26:20.998Z,1010.41
2022-12-27T02:27:23.676Z,1010.42
2022-12-27T02:28:26.424Z,1010.38
2022-12-27T02:29:29.153Z,1010.4
2022-12-27T02:30:32.199Z,1010.42
2022-12-27T02:31:34.885Z,1010.39
2022-12-27T02:32:37.565Z,1010.37
2022-12-27T02:33:40.254Z,1010.38
2022-12-27T02:34:42.928Z,1010.33
2022-12-27T02:35:45.629Z,1010.37
2022-12-27T02:36:48.335Z,1010.37
2022-12-27T02:37:51.181Z,1010.37
2022-12-27T02:38:53.864Z,1010.39
2022-12-27T02:39:56.526Z,1010.41
2022-12-27T02:40:59.235Z,1010.37
2022-12-27T02:42:01.907Z,1010.39
2022-12-27T02:43:04.628Z,1010.33
2022-12-27T02:44:07.345Z,1010.37
2022-12-27T02:45:10.105Z,1010.29
2022-12-27T02:46:22.564Z,1010.35
2022-12-27T02:47:24.813Z,1010.38
2022-12-27T02:48:27.440Z,1010.43
2022-12-27T02:49:30.089Z,1010.45
2022-12-27T02:50:32.848Z,1010.45
2022-12-27T02:51:35.613Z,1010.44
2022-12-27T02:52:38.313Z,1010.53
2022-12-27T02:53:41.132Z,1010.55
2022-12-27T02:54:43.762Z,1010.6
2022-12-27T02:55:46.441Z,1010.59
2022-12-27T02:56:49.161Z,1010.65
2022-12-27T02:57:51.856Z,1010.64
2022-12-27T02:58:54.592Z,1010.64
2022-12-27T02:59:57.212Z,1010.66
2022-12-27T03:01:00.108Z,1010.69
2022-12-27T03:02:04.293Z,1010.67
2022-12-27T03:03:07.378Z,1010.65
2022-12-27T03:04:10.049Z,1010.63
2022-12-27T03:05:12.739Z,1010.65
2022-12-27T03:06:15.450Z,1010.62
2022-12-27T03:07:18.131Z,1010.66
2022-12-27T03:08:20.816Z,1010.61
2022-12-27T03:09:24.123Z,1010.7
2022-12-27T03:10:26.831Z,1010.64
2022-12-27T03:11:29.514Z,1010.66
2022-12-27T03:12:32.250Z,1010.61
2022-12-27T03:13:35.008Z,1010.63
2022-12-27T03:14:37.695Z,1010.6
2022-12-27T03:15:40.646Z,1010.62
2022-12-27T03:16:43.317Z,1010.62
2022-12-27T03:17:45.951Z,1010.67
2022-12-27T03:18:48.666Z,1010.67
2022-12-27T03:19:51.343Z,1010.65
2022-12-27T03:20:54.042Z,1010.65
2022-12-27T03:21:56.731Z,1010.6
2022-12-27T03:22:59.434Z,1010.63
2022-12-27T03:24:02.244Z,1010.63
2022-12-27T03:25:04.968Z,1010.68
2022-12-27T03:26:07.646Z,1010.7
2022-12-27T03:27:10.332Z,1010.69
2022-12-27T03:28:13.062Z,1010.63
2022-12-27T03:29:15.835Z,1010.63
2022-12-27T03:30:18.549Z,1010.66
2022-12-27T03:31:21.355Z,1010.58
2022-12-27T03:32:24.065Z,1010.64
2022-12-27T03:33:26.732Z,1010.63
2022-12-27T03:34:29.381Z,1010.62
2022-12-27T03:35:32.060Z,1010.6
2022-12-27T03:36:34.750Z,1010.61
2022-12-27T03:37:37.406Z,1010.59
2022-12-27T03:38:40.060Z,1010.62
2022-12-27T03:39:42.854Z,1010.55
2022-12-27T03:40:45.657Z,1010.59
2022-12-27T03:41:48.343Z,1010.66
2022-12-27T03:42:51.037Z,1010.63
2022-12-27T03:43:53.794Z,1010.66
2022-12-27T03:44:56.503Z,1010.7
2022-12-27T03:45:59.461Z,1010.74
2022-12-27T03:47:02.176Z,1010.74
2022-12-27T03:48:04.909Z,1010.73
2022-12-27T03:49:07.594Z,1010.76
2022-12-27T03:50:10.287Z,1010.75
2022-12-27T03:51:13.148Z,1010.69
2022-12-27T03:52:15.851Z,1010.69
2022-12-27T03:53:18.564Z,1010.7
2022-12-27T03:54:21.217Z,1010.71
2022-12-27T03:55:33.875Z,1010.71
2022-12-27T03:56:36.156Z,1010.68
2022-12-27T03:57:38.803Z,1010.66
2022-12-27T03:58:41.542Z,1010.63
2022-12-27T03:59:44.249Z,1010.61
2022-12-27T04:00:46.939Z,1010.63
2022-12-27T04:01:50.033Z,1010.65
2022-12-27T04:02:53.347Z,1010.61
2022-12-27T04:03:56.091Z,1010.61
2022-12-27T04:04:58.740Z,1010.69
2022-12-27T04:06:01.391Z,1010.69
2022-12-27T04:07:04.079Z,1010.7
2022-12-27T04:08:06.725Z,1010.68
2022-12-27T04:09:09.435Z,1010.66
2022-12-27T04:10:12.345Z,1010.64
2022-12-27T04:11:15.070Z,1010.7
2022-12-27T04:12:17.793Z,1010.74
2022-12-27T04:13:20.487Z,1010.74
2022-12-27T04:14:23.174Z,1010.72
2022-12-27T04:15:25.936Z,1010.68
2022-12-27T04:16:28.606Z,1010.64
2022-12-27T04:17:31.290Z,1010.58
2022-12-27T04:18:33.978Z,1010.58
2022-12-27T04:19:36.690Z,1010.62
2022-12-27T04:20:39.344Z,1010.59
2022-12-27T04:21:42.015Z,1010.56
2022-12-27T04:22:44.717Z,1010.56
2022-12-27T04:23:47.372Z,1010.56
2022-12-27T04:24:55.268Z,1010.56
2022-12-27T04:25:57.600Z,1010.47
2022-12-27T04:27:00.296Z,1010.61
2022-12-27T04:28:03.048Z,1010.61
2022-12-27T04:29:05.731Z,1010.65
2022-12-27T04:30:08.406Z,1010.68
2022-12-27T04:31:11.350Z,1010.66
2022-12-27T04:32:14.249Z,1010.73
2022-12-27T04:33:16.901Z,1010.7
2022-12-27T04:34:19.562Z,1010.74
2022-12-27T04:35:22.253Z,1010.71
2022-12-27T04:36:24.924Z,1010.68
2022-12-27T04:37:27.821Z,1010.76
2022-12-27T04:38:30.486Z,1010.69
2022-12-27T04:39:33.184Z,1010.76
2022-12-27T04:40:35.852Z,1010.68
2022-12-27T04:41:38.508Z,1010.67
2022-12-27T04:42:41.228Z,1010.64
2022-12-27T04:43:43.927Z,1010.67
2022-12-27T04:44:46.652Z,1010.68
2022-12-27T04:45:49.325Z,1010.62
2022-12-27T04:46:52.395Z,1010.68
2022-12-27T04:47:55.623Z,1010.65
2022-12-27T04:48:58.265Z,1010.59
2022-12-27T04:50:00.942Z,1010.61
2022-12-27T04:51:03.670Z,1010.51
2022-12-27T04:52:06.360Z,1010.59
2022-12-27T04:53:09.034Z,1010.58
2022-12-27T04:54:11.724Z,1010.61
2022-12-27T04:55:14.453Z,1010.57
2022-12-27T04:56:17.195Z,1010.58
2022-12-27T04:57:19.859Z,1010.62
2022-12-27T04:58:22.623Z,1010.59
2022-12-27T04:59:25.340Z,1010.65
2022-12-27T05:00:28.053Z,1010.59
2022-12-27T05:01:31.356Z,1010.61
2022-12-27T05:02:34.729Z,1010.63
2022-12-27T05:03:37.681Z,1010.63
2022-12-27T05:04:40.369Z,1010.66
2022-12-27T05:05:43.069Z,1010.67
2022-12-27T05:06:45.797Z,1010.71
2022-12-27T05:07:48.495Z,1010.72
2022-12-27T05:08:51.164Z,1010.68
2022-12-27T05:09:53.927Z,1010.68
2022-12-27T05:10:56.606Z,1010.7
2022-12-27T05:11:59.271Z,1010.75
2022-12-27T05:13:02.006Z,1010.75
2022-12-27T05:14:04.746Z,1010.74
2022-12-27T05:15:07.482Z,1010.76
2022-12-27T05:16:10.557Z,1010.81
2022-12-27T05:17:13.234Z,1010.78
2022-12-27T05:18:15.935Z,1010.76
2022-12-27T05:19:18.635Z,1010.76
2022-12-27T05:20:21.306Z,1010.78
2022-12-27T05:21:24.059Z,1010.74
2022-12-27T05:22:26.773Z,1010.7
2022-12-27T05:23:29.447Z,1010.64
2022-12-27T05:24:32.104Z,1010.67
2022-12-27T05:25:34.857Z,1010.7
2022-12-27T05:26:37.558Z,1010.72
2022-12-27T05:27:40.261Z,1010.75
2022-12-27T05:28:42.976Z,1010.78
2022-12-27T05:29:45.801Z,1010.8
2022-12-27T05:30:48.554Z,1010.83
2022-12-27T05:31:51.255Z,1010.81
2022-12-27T05:32:53.911Z,1010.82
2022-12-27T05:33:56.645Z,1010.77
2022-12-27T05:34:59.316Z,1010.82
2022-12-27T05:36:02.052Z,1010.85
2022-12-27T05:37:04.705Z,1010.84
2022-12-27T05:38:07.423Z,1010.86
2022-12-27T05:39:10.135Z,1010.84
2022-12-27T05:40:12.824Z,1010.87
2022-12-27T05:41:15.507Z,1010.88
2022-12-27T05:42:18.248Z,1010.91
2022-12-27T05:43:20.911Z,1010.91
2022-12-27T05:44:23.655Z,1010.93
2022-12-27T05:45:26.385Z,1010.96
2022-12-27T05:46:29.374Z,1010.94
2022-12-27T05:47:32.035Z,1011
2022-12-27T05:48:34.712Z,1010.95
2022-12-27T05:49:37.537Z,1010.98
2022-12-27T05:50:40.238Z,1010.97
2022-12-27T05:51:42.939Z,1011.03
2022-12-27T05:52:45.584Z,1011.05
2022-12-27T05:53:48.237Z,1011.09
2022-12-27T05:54:50.956Z,1011.11
2022-12-27T05:55:53.641Z,1011.13
2022-12-27T05:56:56.351Z,1011.11
2022-12-27T05:57:59.043Z,1011.11
2022-12-27T05:59:01.715Z,1011.1
2022-12-27T06:00:04.420Z,1011.1
2022-12-27T06:01:07.143Z,1011.14
2022-12-27T06:02:13.078Z,1011.13
2022-12-27T06:03:16.161Z,1011.1
2022-12-27T06:04:18.830Z,1011.15
2022-12-27T06:05:21.528Z,1011.15
2022-12-27T06:06:24.198Z,1011.17
2022-12-27T06:07:26.868Z,1011.12
2022-12-27T06:08:29.526Z,1011.14
2022-12-27T06:09:32.183Z,1011.1
2022-12-27T06:10:35.447Z,1011.15
2022-12-27T06:11:38.072Z,1011.16
2022-12-27T06:12:40.788Z,1011.1
2022-12-27T06:13:43.514Z,1011.15
2022-12-27T06:14:46.219Z,1011.1
2022-12-27T06:15:48.828Z,1011.13
2022-12-27T06:16:51.695Z,1011.12
2022-12-27T06:17:54.475Z,1011.07
2022-12-27T06:18:57.144Z,1011.06
2022-12-27T06:19:59.858Z,1011.05
2022-12-27T06:21:02.610Z,1010.99
2022-12-27T06:22:05.307Z,1010.98
2022-12-27T06:23:08.000Z,1010.98
2022-12-27T06:24:10.707Z,1011
2022-12-27T06:25:14.875Z,1010.99
2022-12-27T06:26:17.411Z,1011.01
2022-12-27T06:27:20.122Z,1011.02
2022-12-27T06:28:22.762Z,1011
2022-12-27T06:29:25.503Z,1011.05
2022-12-27T06:30:36.842Z,1011.05
2022-12-27T06:31:39.335Z,1011.07
2022-12-27T06:32:42.061Z,1011.07
2022-12-27T06:33:44.802Z,1011.14
2022-12-27T06:34:47.527Z,1011.11
2022-12-27T06:35:50.198Z,1011.07
2022-12-27T06:36:52.906Z,1011.04
2022-12-27T06:37:55.594Z,1011.05
2022-12-27T06:38:58.275Z,1011.06
2022-12-27T06:40:00.949Z,1011.04
2022-12-27T06:41:03.624Z,1011.07
2022-12-27T06:42:06.341Z,1011.07
2022-12-27T06:43:09.040Z,1011.11
2022-12-27T06:44:11.755Z,1011.13
2022-12-27T06:45:14.428Z,1011.13
2022-12-27T06:46:19.571Z,1011.15
2022-12-27T06:47:22.074Z,1011.24
2022-12-27T06:48:24.793Z,1011.2
2022-12-27T06:49:27.487Z,1011.13
2022-12-27T06:50:30.159Z,1011.21
2022-12-27T06:51:32.874Z,1011.2
2022-12-27T06:52:35.664Z,1011.23
2022-12-27T06:53:38.328Z,1011.23
2022-12-27T06:54:41.142Z,1011.23
2022-12-27T06:55:43.768Z,1011.24
2022-12-27T06:56:46.473Z,1011.22
2022-12-27T06:57:49.191Z,1011.23
2022-12-27T06:58:51.860Z,1011.21
2022-12-27T06:59:54.640Z,1011.2
2022-12-27T07:00:57.482Z,1011.23
2022-12-27T07:02:01.097Z,1011.24
2022-12-27T07:03:04.054Z,1011.25
2022-12-27T07:04:06.739Z,1011.23
2022-12-27T07:05:09.468Z,1011.26
2022-12-27T07:06:12.140Z,1011.29
2022-12-27T07:07:16.449Z,1011.3
2022-12-27T07:08:18.985Z,1011.34
2022-12-27T07:09:22.092Z,1011.27
2022-12-27T07:10:24.743Z,1011.31
2022-12-27T07:11:27.428Z,1011.26
2022-12-27T07:12:37.263Z,1011.3
2022-12-27T07:13:39.545Z,1011.34
2022-12-27T07:14:42.205Z,1011.36
2022-12-27T07:15:44.824Z,1011.32
2022-12-27T07:16:47.666Z,1011.35
2022-12-27T07:17:50.318Z,1011.37
2022-12-27T07:18:53.073Z,1011.36
2022-12-27T07:19:56.348Z,1011.35
2022-12-27T07:20:59.088Z,1011.36
2022-12-27T07:22:01.788Z,1011.41
2022-12-27T07:23:04.450Z,1011.37
2022-12-27T07:24:08.205Z,1011.4
2022-12-27T07:25:10.800Z,1011.4
2022-12-27T07:26:13.505Z,1011.45
2022-12-27T07:27:16.146Z,1011.37
2022-12-27T07:28:18.795Z,1011.38
2022-12-27T07:29:21.476Z,1011.38
2022-12-27T07:30:24.164Z,1011.35
2022-12-27T07:31:27.156Z,1011.39
2022-12-27T07:32:29.841Z,1011.41
2022-12-27T07:33:32.550Z,1011.45
2022-12-27T07:34:35.230Z,1011.44
2022-12-27T07:35:45.541Z,1011.47
2022-12-27T07:36:47.965Z,1011.39
2022-12-27T07:37:50.547Z,1011.45
2022-12-27T07:38:53.219Z,1011.46
2022-12-27T07:39:55.902Z,1011.45
2022-12-27T07:40:58.610Z,1011.46
2022-12-27T07:42:08.995Z,1011.5
2022-12-27T07:43:11.301Z,1011.49
2022-12-27T07:44:14.009Z,1011.44
2022-12-27T07:45:16.691Z,1011.41
2022-12-27T07:46:19.855Z,1011.4
2022-12-27T07:47:22.435Z,1011.42
2022-12-27T07:48:25.086Z,1011.42
2022-12-27T07:49:27.834Z,1011.42
2022-12-27T07:50:30.403Z,1011.45
2022-12-27T07:51:33.113Z,1011.42
2022-12-27T07:52:35.898Z,1011.44
2022-12-27T07:53:38.573Z,1011.51
2022-12-27T07:54:41.244Z,1011.48
2022-12-27T07:55:44.010Z,1011.5
2022-12-27T07:56:46.705Z,1011.52
2022-12-27T07:57:49.397Z,1011.5
2022-12-27T07:58:52.118Z,1011.51
2022-12-27T07:59:54.862Z,1011.51
2022-12-27T08:01:00.100Z,1011.5
2022-12-27T08:02:03.373Z,1011.55
2022-12-27T08:03:06.221Z,1011.54
2022-12-27T08:04:08.951Z,1011.57
2022-12-27T08:05:11.647Z,1011.56
2022-12-27T08:06:14.314Z,1011.58
2022-12-27T08:07:17.059Z,1011.56
2022-12-27T08:08:19.792Z,1011.62
2022-12-27T08:09:22.445Z,1011.59
2022-12-27T08:10:25.125Z,1011.56
2022-12-27T08:11:27.856Z,1011.59
2022-12-27T08:12:30.524Z,1011.63
2022-12-27T08:13:33.268Z,1011.53
2022-12-27T08:14:36.005Z,1011.61
2022-12-27T08:15:38.697Z,1011.56
2022-12-27T08:16:41.580Z,1011.5
2022-12-27T08:17:45.322Z,1011.58
2022-12-27T08:18:47.978Z,1011.5
2022-12-27T08:19:50.617Z,1011.48
2022-12-27T08:20:53.335Z,1011.45
2022-12-27T08:21:56.023Z,1011.45
2022-12-27T08:22:58.815Z,1011.46
2022-12-27T08:24:01.525Z,1011.45
2022-12-27T08:25:04.316Z,1011.39
2022-12-27T08:26:06.976Z,1011.42
2022-12-27T08:27:09.709Z,1011.48
2022-12-27T08:28:12.428Z,1011.44
2022-12-27T08:29:15.122Z,1011.38
2022-12-27T08:30:17.730Z,1011.36
2022-12-27T08:31:20.918Z,1011.36
2022-12-27T08:32:23.609Z,1011.4
2022-12-27T08:33:26.261Z,1011.43
2022-12-27T08:34:28.998Z,1011.47
2022-12-27T08:35:54.707Z,1011.45
2022-12-27T08:36:57.439Z,1011.47
2022-12-27T08:37:59.841Z,1011.48
2022-12-27T08:39:02.525Z,1011.44
2022-12-27T08:40:05.333Z,1011.46
2022-12-27T08:41:08.011Z,1011.43
2022-12-27T08:42:10.739Z,1011.44
2022-12-27T08:43:13.475Z,1011.46
2022-12-27T08:44:16.227Z,1011.45
2022-12-27T08:45:18.982Z,1011.43
2022-12-27T08:46:22.393Z,1011.47
2022-12-27T08:47:25.076Z,1011.53
2022-12-27T08:48:27.961Z,1011.5
2022-12-27T08:49:30.664Z,1011.48
2022-12-27T08:50:33.389Z,1011.47
2022-12-27T08:51:42.004Z,1011.47
2022-12-27T08:52:44.381Z,1011.46
2022-12-27T08:53:47.071Z,1011.48
2022-12-27T08:54:49.742Z,1011.49
2022-12-27T08:55:52.659Z,1011.51
2022-12-27T08:56:55.339Z,1011.47
2022-12-27T08:57:58.028Z,1011.5
2022-12-27T08:59:00.781Z,1011.43
2022-12-27T09:00:03.475Z,1011.44
2022-12-27T09:01:06.424Z,1011.42
2022-12-27T09:02:09.453Z,1011.47
2022-12-27T09:03:12.587Z,1011.47
2022-12-27T09:04:16.205Z,1011.51
2022-12-27T09:05:18.838Z,1011.55
2022-12-27T09:06:21.592Z,1011.49
2022-12-27T09:07:24.252Z,1011.54
2022-12-27T09:08:26.940Z,1011.53
2022-12-27T09:09:29.613Z,1011.58
2022-12-27T09:10:32.588Z,1011.66
2022-12-27T09:11:35.470Z,1011.6
2022-12-27T09:12:38.188Z,1011.62
2022-12-27T09:13:40.864Z,1011.6
2022-12-27T09:14:43.604Z,1011.65
2022-12-27T09:15:46.596Z,1011.65
2022-12-27T09:16:49.264Z,1011.75
2022-12-27T09:17:51.982Z,1011.76
2022-12-27T09:18:54.691Z,1011.8
2022-12-27T09:19:57.384Z,1011.79
2022-12-27T09:21:00.134Z,1011.82
2022-12-27T09:22:02.909Z,1011.86
2022-12-27T09:23:05.593Z,1011.79
2022-12-27T09:24:08.873Z,1011.81
2022-12-27T09:25:11.838Z,1011.79
2022-12-27T09:26:14.580Z,1011.76
2022-12-27T09:27:17.372Z,1011.81
2022-12-27T09:28:20.101Z,1011.77
2022-12-27T09:29:22.861Z,1011.81
2022-12-27T09:30:25.627Z,1011.84
2022-12-27T09:31:28.733Z,1011.83
2022-12-27T09:32:31.430Z,1011.83
2022-12-27T09:33:34.157Z,1011.86
2022-12-27T09:34:36.854Z,1011.9
2022-12-27T09:35:39.520Z,1011.89
2022-12-27T09:36:42.257Z,1011.89
2022-12-27T09:37:44.927Z,1011.94
2022-12-27T09:38:47.643Z,1011.96
2022-12-27T09:39:50.369Z,1012
2022-12-27T09:40:53.124Z,1011.99
2022-12-27T09:42:47.919Z,1012.03
2022-12-27T09:43:28.096Z,1012
2022-12-27T09:44:30.282Z,1011.98
2022-12-27T09:45:32.988Z,1012.01
2022-12-27T09:46:35.960Z,1012.04
2022-12-27T09:47:38.672Z,1011.99
2022-12-27T09:48:41.405Z,1012.06
2022-12-27T09:49:44.132Z,1012
2022-12-27T09:50:46.847Z,1012.01
2022-12-27T09:51:49.507Z,1012.04
2022-12-27T09:52:52.210Z,1011.99
2022-12-27T09:53:54.900Z,1011.99
2022-12-27T09:55:05.898Z,1011.98
2022-12-27T09:56:08.206Z,1012
2022-12-27T09:57:21.109Z,1012.04
2022-12-27T09:58:23.393Z,1011.98
2022-12-27T09:59:26.134Z,1011.97
2022-12-27T10:00:42.561Z,1011.98
2022-12-27T10:01:46.546Z,1012.04
2022-12-27T10:02:49.926Z,1011.97
2022-12-27T10:03:53.480Z,1012
2022-12-27T10:05:20.124Z,1012
2022-12-27T10:06:18.044Z,1011.99
2022-12-27T10:07:20.713Z,1011.95
2022-12-27T10:08:23.393Z,1011.92
2022-12-27T10:09:26.051Z,1011.96
2022-12-27T10:10:28.735Z,1011.92
2022-12-27T10:11:31.426Z,1011.97
2022-12-27T10:12:34.131Z,1011.95
2022-12-27T10:13:36.776Z,1011.92
2022-12-27T10:14:39.531Z,1011.91
2022-12-27T10:15:42.534Z,1011.94
2022-12-27T10:16:45.203Z,1011.91
2022-12-27T10:17:53.881Z,1011.95
2022-12-27T10:18:56.198Z,1011.89
2022-12-27T10:19:58.902Z,1011.88
2022-12-27T10:21:01.592Z,1011.82
2022-12-27T10:22:04.310Z,1011.87
2022-12-27T10:23:07.207Z,1011.86
2022-12-27T10:24:09.999Z,1011.84
2022-12-27T10:25:12.755Z,1011.84
2022-12-27T10:26:15.462Z,1011.84
2022-12-27T10:27:18.170Z,1011.83
2022-12-27T10:28:21.109Z,1011.85
2022-12-27T10:29:23.805Z,1011.81
2022-12-27T10:30:26.568Z,1011.75
2022-12-27T10:31:29.750Z,1011.76
2022-12-27T10:32:32.503Z,1011.74
2022-12-27T10:33:35.450Z,1011.69
2022-12-27T10:34:38.135Z,1011.68
2022-12-27T10:35:40.835Z,1011.59
2022-12-27T10:36:43.563Z,1011.67
2022-12-27T10:37:46.273Z,1011.7
2022-12-27T10:38:48.989Z,1011.71
2022-12-27T10:39:51.695Z,1011.72
2022-12-27T10:40:54.414Z,1011.73
2022-12-27T10:41:57.296Z,1011.75
2022-12-27T10:43:00.003Z,1011.74
2022-12-27T10:44:02.998Z,1011.75
2022-12-27T10:45:05.729Z,1011.76
2022-12-27T10:46:08.625Z,1011.78
2022-12-27T10:47:11.610Z,1011.68
2022-12-27T10:48:14.339Z,1011.75
2022-12-27T10:49:22.744Z,1011.75
2022-12-27T10:50:26.222Z,1011.82
2022-12-27T10:51:29.149Z,1011.74
2022-12-27T10:52:31.856Z,1011.77
2022-12-27T10:53:34.541Z,1011.74
2022-12-27T10:54:37.442Z,1011.79
2022-12-27T10:55:40.111Z,1011.8
2022-12-27T10:56:42.815Z,1011.81
2022-12-27T10:57:45.565Z,1011.8
2022-12-27T10:58:59.367Z,1011.76
2022-12-27T11:00:01.652Z,1011.73
2022-12-27T11:01:04.713Z,1011.74
2022-12-27T11:02:08.199Z,1011.72
2022-12-27T11:03:10.952Z,1011.71
2022-12-27T11:04:22.090Z,1011.8
2022-12-27T11:05:24.383Z,1011.76
2022-12-27T11:06:27.045Z,1011.79
2022-12-27T11:07:29.747Z,1011.77
2022-12-27T11:08:32.431Z,1011.82
2022-12-27T11:09:35.178Z,1011.76
2022-12-27T11:10:37.859Z,1011.82
2022-12-27T11:11:40.528Z,1011.77
2022-12-27T11:12:43.232Z,1011.82
2022-12-27T11:13:45.914Z,1011.8
2022-12-27T11:14:48.607Z,1011.72
2022-12-27T11:15:59.492Z,1011.71
2022-12-27T11:17:02.071Z,1011.75
2022-12-27T11:18:04.826Z,1011.72
2022-12-27T11:19:07.543Z,1011.67
2022-12-27T11:20:10.250Z,1011.67
2022-12-27T11:21:28.309Z,1011.64
2022-12-27T11:22:30.596Z,1011.71
2022-12-27T11:23:33.302Z,1011.66
2022-12-27T11:24:35.997Z,1011.68
2022-12-27T11:25:38.783Z,1011.62
2022-12-27T11:26:41.452Z,1011.67
2022-12-27T11:27:44.179Z,1011.64
2022-12-27T11:28:46.871Z,1011.62
2022-12-27T11:29:49.585Z,1011.63
2022-12-27T11:30:52.361Z,1011.65
2022-12-27T11:31:55.319Z,1011.62
2022-12-27T11:32:57.999Z,1011.62
2022-12-27T11:34:00.801Z,1011.57
2022-12-27T11:35:03.495Z,1011.61
2022-12-27T11:36:06.411Z,1011.59
2022-12-27T11:37:09.095Z,1011.56
2022-12-27T11:38:11.805Z,1011.53
2022-12-27T11:39:14.564Z,1011.48
2022-12-27T11:40:17.282Z,1011.49
2022-12-27T11:41:28.388Z,1011.53
2022-12-27T11:42:30.659Z,1011.52
2022-12-27T11:43:33.329Z,1011.52
2022-12-27T11:44:36.047Z,1011.54
2022-12-27T11:45:38.763Z,1011.53
2022-12-27T11:46:41.806Z,1011.6
2022-12-27T11:47:44.592Z,1011.48
2022-12-27T11:48:47.305Z,1011.45
2022-12-27T11:49:50.059Z,1011.49
2022-12-27T11:50:52.804Z,1011.42
2022-12-27T11:51:55.493Z,1011.41
2022-12-27T11:52:58.203Z,1011.35
2022-12-27T11:54:00.891Z,1011.37
2022-12-27T11:55:03.692Z,1011.38
2022-12-27T11:56:06.487Z,1011.46
2022-12-27T11:57:09.228Z,1011.48
2022-12-27T11:58:11.953Z,1011.47
2022-12-27T11:59:14.633Z,1011.42
2022-12-27T12:00:17.355Z,1011.41
2022-12-27T12:01:20.220Z,1011.42
2022-12-27T12:02:23.237Z,1011.38
2022-12-27T12:03:26.121Z,1011.4
2022-12-27T12:04:29.218Z,1011.39
2022-12-27T12:05:32.079Z,1011.37
2022-12-27T12:06:35.117Z,1011.38
2022-12-27T12:07:37.790Z,1011.38
2022-12-27T12:08:40.507Z,1011.38
2022-12-27T12:09:43.248Z,1011.35
2022-12-27T12:10:45.953Z,1011.36
2022-12-27T12:11:55.665Z,1011.32
2022-12-27T12:12:57.981Z,1011.28
2022-12-27T12:14:00.696Z,1011.3
2022-12-27T12:15:03.452Z,1011.24
2022-12-27T12:16:06.600Z,1011.26
2022-12-27T12:17:09.314Z,1011.25
2022-12-27T12:18:12.001Z,1011.27
2022-12-27T12:19:14.747Z,1011.3
2022-12-27T12:20:17.466Z,1011.27
2022-12-27T12:21:20.224Z,1011.29
2022-12-27T12:22:22.948Z,1011.31
2022-12-27T12:23:25.661Z,1011.28
2022-12-27T12:24:28.583Z,1011.29
2022-12-27T12:25:31.286Z,1011.31
2022-12-27T12:26:34.076Z,1011.29
2022-12-27T12:27:36.825Z,1011.26
2022-12-27T12:28:58.983Z,1011.25
2022-12-27T12:30:01.436Z,1011.25
2022-12-27T12:31:04.120Z,1011.27
2022-12-27T12:32:07.088Z,1011.29
2022-12-27T12:33:09.717Z,1011.24
2022-12-27T12:34:12.400Z,1011.29
2022-12-27T12:35:15.196Z,1011.3
2022-12-27T12:36:17.905Z,1011.27
2022-12-27T12:37:20.645Z,1011.27
2022-12-27T12:38:23.384Z,1011.29
2022-12-27T12:39:26.125Z,1011.27
2022-12-27T12:40:28.911Z,1011.31
2022-12-27T12:41:31.623Z,1011.27
2022-12-27T12:42:34.352Z,1011.32
2022-12-27T12:43:37.084Z,1011.31
2022-12-27T12:44:42.203Z,1011.33
2022-12-27T12:45:44.898Z,1011.33
2022-12-27T12:46:47.641Z,1011.36